Time;durP1;ratioP1;P1;durP2;ratioP2;P2;SDS_P1;SDS_P2;PMS_P1;PMS_P2;Temp;Humidity;BMP_temperature;BMP_pressure;BME280_temperature;BME280_humidity;BME280_pressure;Samples;Min_cycle;Max_cycle;Signal;HPM_P1;HPM_P2
2022/09/11 00:01:01;;;;;;;5.00;3.75;;;;;;;18.32;77.46;94489.47;5130561;28;20249;-73
2022/09/11 00:03:30;;;;;;;7.22;4.35;;;;;;;18.35;77.63;94490.66;5130368;28;20228;-73
2022/09/11 00:06:01;;;;;;;7.03;4.70;;;;;;;18.28;77.79;94491.41;5130038;27;20200;-71
2022/09/11 00:08:30;;;;;;;9.88;4.65;;;;;;;18.24;77.68;94471.41;5130600;28;20193;-72
2022/09/11 00:11:04;;;;;;;6.55;4.50;;;;;;;18.25;77.82;94483.94;5130400;27;20300;-71
2022/09/11 00:13:31;;;;;;;6.15;4.40;;;;;;;18.21;78.11;94490.56;5130599;28;20303;-72
2022/09/11 00:15:58;;;;;;;6.55;4.05;;;;;;;18.16;78.43;94494.44;5130404;28;20311;-73
2022/09/11 00:18:27;;;;;;;6.70;4.15;;;;;;;18.23;77.96;94497.25;5130747;28;20270;-71
2022/09/11 00:20:55;;;;;;;5.72;3.40;;;;;;;18.23;77.98;94491.75;5130380;27;20435;-71
2022/09/11 00:23:25;;;;;;;10.20;5.35;;;;;;;18.14;78.50;94501.47;5130334;27;20675;-71
2022/09/11 00:25:53;;;;;;;7.63;4.65;;;;;;;18.09;78.66;94497.13;5130093;27;20221;-70
2022/09/11 00:28:22;;;;;;;9.55;4.85;;;;;;;18.09;78.62;94502.59;5130319;28;20193;-71
2022/09/11 00:30:58;;;;;;;9.13;5.78;;;;;;;18.07;79.09;94496.69;5130343;27;20201;-72
2022/09/11 00:33:26;;;;;;;7.03;4.88;;;;;;;18.02;79.33;94495.13;5130280;28;20652;-73
2022/09/11 00:35:57;;;;;;;10.77;5.32;;;;;;;17.99;79.89;94503.28;5130160;28;20233;-74
2022/09/11 00:38:24;;;;;;;9.77;5.40;;;;;;;17.89;80.43;94502.03;5130686;27;20217;-72
2022/09/11 00:40:52;;;;;;;8.52;5.60;;;;;;;17.82;80.55;94498.44;5129648;27;20663;-71
2022/09/11 00:43:20;;;;;;;8.88;5.20;;;;;;;17.75;80.87;94505.44;5130509;28;20194;-71
2022/09/11 00:45:53;;;;;;;10.13;5.88;;;;;;;17.72;80.97;94500.69;5130168;28;20200;-73
2022/09/11 00:48:23;;;;;;;10.73;5.60;;;;;;;17.66;81.32;94509.59;5129881;28;20909;-73
2022/09/11 00:50:51;;;;;;;8.43;5.05;;;;;;;17.62;80.93;94495.88;5130366;27;20224;-73
2022/09/11 00:53:21;;;;;;;6.90;4.43;;;;;;;17.70;80.63;94508.50;5133925;27;20266;-73
2022/09/11 00:55:52;;;;;;;7.85;5.00;;;;;;;17.63;80.88;94500.19;5134272;27;20236;-72
2022/09/11 00:58:26;;;;;;;4.55;3.63;;;;;;;17.62;80.87;94493.13;5120743;27;20713;-74
2022/09/11 01:00:55;;;;;;;7.20;4.75;;;;;;;17.45;81.33;94482.75;5133908;27;20197;-73
2022/09/11 01:03:24;;;;;;;7.40;5.00;;;;;;;17.45;81.69;94499.19;5134030;27;20246;-73
2022/09/11 01:05:51;;;;;;;8.82;4.55;;;;;;;17.43;81.92;94498.78;5133869;27;20224;-72
2022/09/11 01:08:19;;;;;;;7.22;5.10;;;;;;;17.50;81.91;94492.56;5133553;27;20282;-72
2022/09/11 01:10:59;;;;;;;7.10;4.50;;;;;;;17.42;82.32;94491.72;5133158;27;20293;-73
2022/09/11 01:13:35;;;;;;;7.53;4.70;;;;;;;17.42;82.35;94494.44;5134256;27;20216;-72
2022/09/11 01:16:12;;;;;;;9.60;5.45;;;;;;;17.33;82.72;94499.44;5133679;27;20273;-72
2022/09/11 01:18:46;;;;;;;8.57;4.72;;;;;;;17.29;82.82;94493.91;5133392;27;20193;-72
2022/09/11 01:21:40;;;;;;;6.90;4.72;;;;;;;17.29;83.07;94493.13;5133524;27;20192;-71
2022/09/11 01:24:19;;;;;;;7.30;4.90;;;;;;;17.32;82.85;94500.59;5133375;27;20189;-72
2022/09/11 01:27:14;;;;;;;12.60;5.35;;;;;;;17.27;82.90;94495.44;5132935;27;20221;-71
2022/09/11 01:29:45;;;;;;;6.18;4.40;;;;;;;17.21;83.00;94503.22;5133559;27;20196;-72
2022/09/11 01:32:21;;;;;;;6.10;4.57;;;;;;;17.17;82.98;94498.84;5133161;27;20205;-72
2022/09/11 01:34:56;;;;;;;6.63;4.78;;;;;;;17.11;83.50;94503.06;5132997;27;20713;-72
2022/09/11 01:37:29;;;;;;;5.15;4.13;;;;;;;17.10;83.05;94490.53;5133104;27;20216;-71
2022/09/11 01:40:03;;;;;;;9.52;4.40;;;;;;;17.03;83.30;94486.56;5128307;27;20193;-72
2022/09/11 01:42:33;;;;;;;7.78;4.70;;;;;;;17.03;83.52;94478.34;5125196;27;20776;-72
2022/09/11 01:45:05;;;;;;;5.65;3.80;;;;;;;16.99;83.51;94479.47;5133294;27;20189;-72
2022/09/11 01:47:35;;;;;;;7.15;4.78;;;;;;;16.98;83.17;94475.94;5132485;27;20197;-74
2022/09/11 01:50:05;;;;;;;6.32;4.28;;;;;;;16.95;82.96;94473.94;5133077;27;20269;-71
2022/09/11 01:52:36;;;;;;;7.07;4.18;;;;;;;16.97;83.04;94471.63;5132789;27;20671;-71
2022/09/11 01:55:12;;;;;;;7.20;3.88;;;;;;;16.90;83.63;94470.75;5119626;27;20193;-71
2022/09/11 01:57:45;;;;;;;11.68;4.50;;;;;;;16.84;83.25;94469.47;5132774;27;20221;-71
2022/09/11 02:00:14;;;;;;;5.43;4.25;;;;;;;16.85;83.41;94463.66;5132470;27;20201;-71
2022/09/11 02:02:49;;;;;;;6.95;4.10;;;;;;;16.89;83.83;94459.03;5132066;27;20209;-71
2022/09/11 02:05:20;;;;;;;5.32;3.75;;;;;;;16.86;83.13;94470.69;5132781;27;20598;-71
2022/09/11 02:07:52;;;;;;;4.70;3.67;;;;;;;16.86;83.44;94467.16;5132640;27;20197;-71
2022/09/11 02:10:23;;;;;;;4.97;3.75;;;;;;;16.78;83.61;94452.63;5132006;27;20253;-71
2022/09/11 02:12:57;;;;;;;6.00;3.92;;;;;;;16.75;84.05;94456.09;5131822;27;20270;-71
2022/09/11 02:15:30;;;;;;;5.75;4.13;;;;;;;16.76;84.49;94460.41;5132354;27;20291;-72
2022/09/11 02:18:02;;;;;;;7.20;4.25;;;;;;;16.82;84.86;94458.91;5132568;27;20229;-72
2022/09/11 02:20:30;;;;;;;9.90;5.05;;;;;;;16.75;85.46;94464.31;5132328;27;20193;-70
2022/09/11 02:22:57;;;;;;;6.22;4.38;;;;;;;16.68;85.80;94453.25;5132023;27;20200;-70
2022/09/11 02:25:24;;;;;;;7.38;4.45;;;;;;;16.57;86.74;94457.75;5132213;27;20220;-72
2022/09/11 02:27:53;;;;;;;10.13;4.93;;;;;;;16.55;86.88;94454.59;5132046;27;20254;-72
2022/09/11 02:30:20;;;;;;;5.63;4.65;;;;;;;16.51;87.71;94456.53;5132584;27;20197;-70
2022/09/11 02:32:48;;;;;;;9.43;4.60;;;;;;;16.52;87.58;94447.94;5131810;27;20205;-71
2022/09/11 02:35:16;;;;;;;10.00;5.18;;;;;;;16.42;88.16;94450.50;5132079;27;20778;-71
2022/09/11 02:37:55;;;;;;;21.95;5.43;;;;;;;16.35;88.62;94457.47;5132125;27;20307;-71
2022/09/11 02:40:42;;;;;;;8.18;5.47;;;;;;;16.32;89.20;94458.19;5131693;27;20189;-72
2022/09/11 02:43:25;;;;;;;9.50;5.30;;;;;;;16.21;89.57;94465.44;5131477;27;20204;-71
2022/09/11 02:46:06;;;;;;;7.90;5.22;;;;;;;16.20;90.25;94466.59;5132091;27;20197;-71
2022/09/11 02:48:49;;;;;;;7.32;5.10;;;;;;;16.16;90.67;94457.56;5118843;27;20587;-70
2022/09/11 02:51:25;;;;;;;8.40;5.22;;;;;;;16.15;90.47;94464.16;5131454;27;20225;-72
2022/09/11 02:54:03;;;;;;;8.13;5.30;;;;;;;16.17;90.89;94466.53;5131482;27;20283;-70
2022/09/11 02:56:39;;;;;;;12.27;5.22;;;;;;;16.17;90.90;94461.88;5131515;27;20747;-71
2022/09/11 02:59:11;;;;;;;8.70;4.60;;;;;;;16.16;91.49;94457.56;5131615;27;20197;-72
2022/09/11 03:01:48;;;;;;;10.55;5.53;;;;;;;16.26;91.04;94465.13;5131625;27;20188;-72
2022/09/11 03:04:18;;;;;;;7.85;5.43;;;;;;;16.18;91.23;94454.47;5131152;27;20720;-72
2022/09/11 03:06:47;;;;;;;10.48;5.55;;;;;;;16.14;91.67;94462.59;5131935;27;20238;-72
2022/09/11 03:09:14;;;;;;;13.10;4.72;;;;;;;16.15;91.26;94464.16;5131777;27;20201;-72
2022/09/11 03:11:41;;;;;;;7.68;5.28;;;;;;;16.18;90.88;94468.91;5131033;27;20221;-72
2022/09/11 03:14:08;;;;;;;6.60;5.00;;;;;;;16.10;90.96;94467.22;5130313;27;20202;-72
2022/09/11 03:16:35;;;;;;;8.43;5.28;;;;;;;16.03;91.42;94469.84;5131310;27;20336;-72
2022/09/11 03:19:02;;;;;;;8.27;5.25;;;;;;;15.91;92.25;94478.22;5131072;27;20205;-70
2022/09/11 03:21:31;;;;;;;7.43;5.55;;;;;;;15.85;92.88;94477.72;5131351;27;20203;-72
2022/09/11 03:23:58;;;;;;;8.10;5.10;;;;;;;15.77;93.36;94483.44;5131250;27;20224;-72
2022/09/11 03:26:26;;;;;;;8.77;5.35;;;;;;;15.80;93.58;94485.44;5130846;27;20225;-70
2022/09/11 03:28:53;;;;;;;7.97;5.68;;;;;;;15.81;93.42;94481.56;5130999;27;20253;-72
2022/09/11 03:31:20;;;;;;;7.30;5.28;;;;;;;15.80;92.68;94480.00;5131017;27;20284;-72
2022/09/11 03:33:47;;;;;;;10.48;5.22;;;;;;;15.80;92.80;94485.44;5130557;27;20257;-71
2022/09/11 03:36:14;;;;;;;8.60;5.53;;;;;;;15.79;92.83;94489.34;5130288;27;20576;-71
2022/09/11 03:38:44;;;;;;;7.60;5.13;;;;;;;15.75;93.05;94493.94;5130750;27;20250;-71
2022/09/11 03:41:11;;;;;;;5.97;4.53;;;;;;;15.71;93.12;94496.63;5130956;27;20197;-71
2022/09/11 03:43:38;;;;;;;8.93;4.78;;;;;;;15.71;92.88;94498.56;5129927;27;20671;-71
2022/09/11 03:46:05;;;;;;;10.82;5.43;;;;;;;15.62;92.93;94502.31;5130130;27;20731;-71
2022/09/11 03:48:32;;;;;;;12.15;4.93;;;;;;;15.60;92.84;94499.13;5130610;27;20288;-71
2022/09/11 03:51:00;;;;;;;6.07;4.57;;;;;;;15.49;92.77;94498.13;5130605;27;20303;-71
2022/09/11 03:53:27;;;;;;;6.78;4.38;;;;;;;15.33;93.56;94497.44;5130697;27;20208;-71
2022/09/11 03:55:55;;;;;;;8.45;5.30;;;;;;;15.37;95.08;94506.47;5130679;27;20209;-71
2022/09/11 03:58:22;;;;;;;11.75;5.65;;;;;;;15.33;95.22;94508.34;5130980;27;20197;-71
2022/09/11 04:00:49;;;;;;;12.23;5.13;;;;;;;15.27;95.34;94512.53;5131050;28;20201;-71
2022/09/11 04:03:16;;;;;;;9.48;5.80;;;;;;;15.30;95.80;94511.81;5130754;28;20640;-71
2022/09/11 04:05:55;;;;;;;9.60;5.85;;;;;;;15.33;96.23;94505.63;5130752;27;20254;-71
2022/09/11 04:08:22;;;;;;;8.63;5.63;;;;;;;15.39;96.55;94504.19;5131088;27;20549;-71
2022/09/11 04:10:48;;;;;;;9.43;5.88;;;;;;;15.44;96.19;94506.63;5130595;27;20726;-71
2022/09/11 04:13:17;;;;;;;10.70;6.47;;;;;;;15.53;95.08;94503.66;5130391;28;20633;-73
2022/09/11 04:15:43;;;;;;;11.27;6.50;;;;;;;15.57;94.57;94499.88;5130154;27;20209;-72
2022/09/11 04:18:10;;;;;;;9.38;5.15;;;;;;;15.66;94.13;94507.03;5130120;27;20646;-72
2022/09/11 04:20:39;;;;;;;8.38;4.60;;;;;;;15.72;93.32;94502.84;5130522;28;20269;-71
2022/09/11 04:23:06;;;;;;;9.15;5.57;;;;;;;16.03;92.98;94499.91;5130230;28;20197;-72
2022/09/11 04:25:33;;;;;;;6.88;5.10;;;;;;;16.67;89.83;94511.88;5131205;27;20216;-72
2022/09/11 04:28:00;;;;;;;7.53;4.88;;;;;;;17.63;85.50;94502.94;5134127;27;20197;-72
2022/09/11 04:30:28;;;;;;;9.30;5.10;;;;;;;18.66;79.95;94492.09;5134013;27;20238;-71
2022/09/11 04:32:55;;;;;;;5.75;4.38;;;;;;;19.52;76.73;94488.63;5134012;27;20566;-70
2022/09/11 04:35:21;;;;;;;7.32;4.80;;;;;;;20.35;73.06;94485.63;5134023;27;20203;-70
2022/09/11 04:37:48;;;;;;;7.13;3.88;;;;;;;21.02;69.94;94476.53;5134172;27;20285;-71
2022/09/11 04:40:15;;;;;;;6.93;4.00;;;;;;;21.61;68.13;94493.25;5134096;27;20204;-71
2022/09/11 04:42:42;;;;;;;5.32;3.90;;;;;;;21.97;67.37;94489.13;5134063;27;20201;-72
2022/09/11 04:45:10;;;;;;;9.23;4.15;;;;;;;22.55;64.11;94484.00;5133240;27;20728;-70
2022/09/11 04:47:39;;;;;;;7.13;3.80;;;;;;;23.03;62.41;94486.72;5134028;27;20197;-72
2022/09/11 04:50:07;;;;;;;6.35;5.05;;;;;;;23.76;60.49;94489.06;5133932;27;20782;-72
2022/09/11 04:52:34;;;;;;;6.20;4.45;;;;;;;24.50;57.83;94487.19;5134015;27;20193;-71
2022/09/11 04:55:01;;;;;;;5.07;3.72;;;;;;;24.89;55.96;94474.66;5133906;27;20261;-71
2022/09/11 04:57:30;;;;;;;4.97;3.13;;;;;;;24.89;55.35;94482.97;5133889;27;20774;-72
2022/09/11 04:59:57;;;;;;;6.93;4.70;;;;;;;25.33;54.42;94490.91;5120045;27;20731;-70
2022/09/11 05:02:24;;;;;;;4.97;3.67;;;;;;;25.49;54.16;94488.22;5133765;27;20193;-72
2022/09/11 05:04:52;;;;;;;5.68;4.45;;;;;;;25.00;53.72;94481.63;5133994;27;20193;-72
2022/09/11 05:07:19;;;;;;;12.60;6.60;;;;;;;23.92;57.35;94486.44;5133986;27;20201;-71
2022/09/11 05:09:46;;;;;;;6.05;4.45;;;;;;;23.22;59.02;94493.63;5133996;27;20220;-72
2022/09/11 05:12:13;;;;;;;7.70;4.85;;;;;;;23.38;59.50;94491.84;5133871;27;20224;-72
2022/09/11 05:14:40;;;;;;;5.70;4.65;;;;;;;23.96;57.39;94492.72;5133781;27;20208;-72
2022/09/11 05:17:07;;;;;;;8.18;4.68;;;;;;;23.85;58.28;94486.53;5133070;27;20628;-72
2022/09/11 05:19:33;;;;;;;7.60;4.57;;;;;;;24.92;55.13;94482.13;5133433;27;20212;-72
2022/09/11 05:22:03;;;;;;;7.35;5.32;;;;;;;24.75;55.65;94479.25;5133680;27;20274;-70
2022/09/11 05:24:30;;;;;;;10.05;5.65;;;;;;;24.60;56.03;94480.69;5133353;27;20283;-72
2022/09/11 05:26:57;;;;;;;6.97;5.03;;;;;;;24.57;56.03;94478.78;5133176;27;20672;-73
2022/09/11 05:29:28;;;;;;;7.25;5.28;;;;;;;25.72;54.01;94481.03;5133459;27;20208;-71
2022/09/11 05:31:57;;;;;;;9.40;5.40;;;;;;;24.74;55.65;94488.75;5133032;27;20261;-73
2022/09/11 05:34:27;;;;;;;11.00;5.85;;;;;;;23.69;58.75;94489.13;5133359;27;20548;-73
2022/09/11 05:36:56;;;;;;;8.07;5.93;;;;;;;23.47;60.00;94490.56;5132711;27;20249;-72
2022/09/11 05:39:24;;;;;;;7.78;6.22;;;;;;;23.14;61.20;94490.16;5133378;27;20293;-73
2022/09/11 05:41:51;;;;;;;7.00;5.30;;;;;;;23.87;58.87;94484.16;5133235;27;20245;-73
2022/09/11 05:44:18;;;;;;;6.65;5.63;;;;;;;23.99;58.90;94475.28;5133057;27;20724;-73
2022/09/11 05:46:45;;;;;;;8.13;5.43;;;;;;;23.45;59.96;94473.59;5132267;27;20200;-73
2022/09/11 05:49:12;;;;;;;9.77;5.30;;;;;;;24.25;57.35;94472.97;5131781;27;20320;-72
2022/09/11 05:51:40;;;;;;;7.50;5.35;;;;;;;24.63;56.19;94474.31;5132477;27;20273;-72
2022/09/11 05:54:07;;;;;;;9.57;6.10;;;;;;;23.76;59.06;94472.44;5132742;27;20667;-73
2022/09/11 05:56:35;;;;;;;8.25;5.40;;;;;;;24.31;57.25;94485.13;5119237;27;20200;-74
2022/09/11 05:59:02;;;;;;;5.93;5.18;;;;;;;23.74;59.13;94483.94;5133159;27;20201;-73
2022/09/11 06:01:30;;;;;;;7.90;5.80;;;;;;;23.06;60.87;94491.44;5132616;27;20212;-73
2022/09/11 06:03:57;;;;;;;6.90;5.75;;;;;;;23.89;59.04;94481.75;5133139;27;20574;-74
2022/09/11 06:06:24;;;;;;;8.55;6.35;;;;;;;23.39;60.44;94485.13;5132943;27;20196;-73
2022/09/11 06:08:52;;;;;;;9.77;5.68;;;;;;;23.75;60.06;94487.47;5132891;27;20205;-72
2022/09/11 06:11:20;;;;;;;7.07;6.30;;;;;;;23.11;61.78;94493.72;5132387;27;20846;-73
2022/09/11 06:13:49;;;;;;;8.80;7.43;;;;;;;22.88;62.12;94501.84;5132654;27;20200;-75
2022/09/11 06:16:18;;;;;;;8.60;6.90;;;;;;;22.45;63.65;94496.69;5133002;27;20245;-72
2022/09/11 06:18:48;;;;;;;8.40;6.85;;;;;;;21.78;65.29;94503.41;5131212;27;20236;-74
2022/09/11 06:21:17;;;;;;;11.35;7.55;;;;;;;21.93;65.44;94510.41;5132299;27;20652;-72
2022/09/11 06:23:44;;;;;;;11.13;7.55;;;;;;;23.02;62.54;94494.22;5132386;27;20201;-72
2022/09/11 06:26:14;;;;;;;10.55;8.07;;;;;;;23.69;60.64;94500.19;5132076;27;20213;-70
2022/09/11 06:28:41;;;;;;;7.78;6.53;;;;;;;23.75;59.55;94498.56;5131975;27;20200;-72
2022/09/11 06:31:12;;;;;;;10.00;7.47;;;;;;;23.68;60.85;94493.09;5131956;27;20201;-72
2022/09/11 06:33:41;;;;;;;10.43;7.80;;;;;;;23.67;60.32;94495.06;5132039;27;20782;-71
2022/09/11 06:36:10;;;;;;;9.75;8.48;;;;;;;23.58;60.23;94499.56;5131425;27;20201;-71
2022/09/11 06:38:37;;;;;;;10.60;7.95;;;;;;;23.87;60.44;94499.97;5131689;27;20315;-71
2022/09/11 06:41:06;;;;;;;9.80;8.07;;;;;;;24.41;58.74;94500.78;5132060;27;20284;-71
2022/09/11 06:43:33;;;;;;;9.63;7.97;;;;;;;24.73;56.90;94506.63;5131621;27;20250;-72
2022/09/11 06:46:04;;;;;;;9.15;7.07;;;;;;;24.21;58.52;94513.72;5131419;27;20245;-71
2022/09/11 06:48:32;;;;;;;9.20;7.80;;;;;;;25.26;55.22;94509.66;5117670;27;20316;-71
2022/09/11 06:51:02;;;;;;;9.35;7.50;;;;;;;25.71;54.46;94515.53;5130232;27;20270;-71
2022/09/11 06:53:30;;;;;;;9.93;7.90;;;;;;;24.36;57.08;94515.09;5131610;27;20202;-71
2022/09/11 06:55:59;;;;;;;8.52;7.63;;;;;;;23.28;60.84;94519.63;5131163;27;20197;-72
2022/09/11 06:58:28;;;;;;;9.73;8.02;;;;;;;24.53;57.20;94507.72;5130692;27;20644;-71
2022/09/11 07:00:55;;;;;;;8.30;7.32;;;;;;;25.95;53.41;94497.59;5131306;27;20291;-72
2022/09/11 07:03:21;;;;;;;8.02;6.72;;;;;;;24.93;54.83;94497.56;5131669;27;20601;-72
2022/09/11 07:05:49;;;;;;;7.82;7.00;;;;;;;25.56;53.33;94511.47;5131457;27;20205;-71
2022/09/11 07:08:16;;;;;;;6.63;5.93;;;;;;;23.90;55.10;94510.22;5131798;27;20201;-74
2022/09/11 07:10:43;;;;;;;6.05;5.45;;;;;;;23.50;55.33;94503.59;5131413;27;20228;-72
2022/09/11 07:13:10;;;;;;;6.32;5.68;;;;;;;23.48;56.26;94511.50;5131154;27;20209;-71
2022/09/11 07:15:37;;;;;;;8.10;5.78;;;;;;;23.78;53.84;94511.53;5130990;27;20245;-72
2022/09/11 07:18:04;;;;;;;6.85;6.00;;;;;;;24.55;54.91;94506.13;5131666;27;20258;-72
2022/09/11 07:20:31;;;;;;;7.85;6.88;;;;;;;23.92;56.83;94514.09;5130830;27;20208;-71
2022/09/11 07:23:00;;;;;;;8.38;6.72;;;;;;;23.14;59.66;94511.47;5131330;27;20226;-73
2022/09/11 07:25:27;;;;;;;8.18;6.45;;;;;;;22.78;61.16;94522.09;5130175;27;20223;-71
2022/09/11 07:27:54;;;;;;;8.35;6.80;;;;;;;23.56;59.14;94507.47;5131335;27;20200;-71
2022/09/11 07:30:21;;;;;;;7.40;6.05;;;;;;;24.47;55.54;94507.41;5130645;27;20627;-71
2022/09/11 07:32:48;;;;;;;10.13;7.28;;;;;;;23.08;57.84;94511.16;5130996;27;20197;-71
2022/09/11 07:35:20;;;;;;;7.30;6.50;;;;;;;23.29;56.67;94510.13;5130926;27;20213;-70
2022/09/11 07:37:47;;;;;;;7.15;6.38;;;;;;;24.38;55.56;94507.16;5131073;27;20217;-71
2022/09/11 07:40:16;;;;;;;8.38;6.88;;;;;;;23.99;54.97;94491.88;5130822;27;20719;-69
2022/09/11 07:42:42;;;;;;;8.18;7.13;;;;;;;24.44;55.20;94494.44;5131972;27;20676;-70
2022/09/11 07:45:10;;;;;;;8.32;7.32;;;;;;;24.63;52.70;94499.25;5130737;27;20593;-71
2022/09/11 07:47:38;;;;;;;10.75;8.35;;;;;;;24.53;52.28;94496.66;5130842;27;20201;-72
2022/09/11 07:50:06;;;;;;;7.85;7.05;;;;;;;24.42;51.68;94496.81;5117043;27;20274;-71
2022/09/11 07:52:33;;;;;;;14.38;11.25;;;;;;;24.58;51.96;94498.94;5129942;27;20203;-71
2022/09/11 07:55:01;;;;;;;7.40;6.47;;;;;;;23.95;51.96;94496.69;5130364;27;20209;-72
2022/09/11 07:57:30;;;;;;;8.02;7.07;;;;;;;23.69;52.92;94494.66;5130315;28;20304;-73
2022/09/11 07:59:57;;;;;;;8.80;6.55;;;;;;;23.26;53.67;94499.88;5130320;27;20201;-72
2022/09/11 08:02:24;;;;;;;7.43;6.57;;;;;;;22.95;54.68;94499.03;5129974;28;20250;-73
2022/09/11 08:04:51;;;;;;;9.57;7.43;;;;;;;23.17;54.39;94491.31;5128618;27;20626;-70
2022/09/11 08:07:18;;;;;;;10.27;7.55;;;;;;;22.80;55.45;94505.91;5130422;27;20283;-72
2022/09/11 08:09:45;;;;;;;8.20;7.35;;;;;;;22.79;56.45;94498.81;5130411;27;20320;-72
2022/09/11 08:12:12;;;;;;;11.00;7.80;;;;;;;22.77;57.07;94492.91;5129950;28;20221;-72
2022/09/11 08:14:40;;;;;;;8.93;7.57;;;;;;;22.50;56.92;94496.25;5130525;28;20205;-72
2022/09/11 08:17:07;;;;;;;9.95;7.38;;;;;;;22.77;55.44;94490.13;5130388;27;20207;-71
2022/09/11 08:19:34;;;;;;;11.63;8.18;;;;;;;22.99;56.18;94485.97;5130054;27;20648;-71
2022/09/11 08:22:00;;;;;;;11.30;8.45;;;;;;;23.04;55.74;94489.06;5129675;28;20250;-70
2022/09/11 08:24:27;;;;;;;7.78;6.97;;;;;;;22.91;54.59;94479.72;5129860;27;20228;-72
2022/09/11 08:26:55;;;;;;;7.43;6.63;;;;;;;22.82;54.36;94475.88;5129143;27;21355;-77
2022/09/11 08:29:23;;;;;;;12.18;8.02;;;;;;;23.29;54.65;94466.69;5129347;28;20217;-71
2022/09/11 08:31:51;;;;;;;8.27;7.32;;;;;;;22.98;55.61;94474.13;5129145;28;20216;-71
2022/09/11 08:34:21;;;;;;;9.00;7.78;;;;;;;23.00;55.99;94476.47;5128997;28;20196;-74
2022/09/11 08:36:50;;;;;;;11.80;9.23;;;;;;;22.92;56.20;94469.47;5128170;28;20197;-71
2022/09/11 08:39:17;;;;;;;9.93;7.82;;;;;;;22.64;56.95;94479.56;5129094;28;20217;-73
2022/09/11 08:41:48;;;;;;;8.43;6.55;;;;;;;22.40;56.58;94479.78;5128708;28;20204;-78
2022/09/11 08:44:22;;;;;;;10.88;8.75;;;;;;;22.30;58.37;94489.69;5128273;28;20189;-72
2022/09/11 08:46:54;;;;;;;14.00;8.25;;;;;;;22.72;57.52;94479.47;5127092;28;20192;-69
2022/09/11 08:49:25;;;;;;;9.80;7.05;;;;;;;22.56;57.81;94480.81;5128579;28;20619;-72
2022/09/11 08:51:55;;;;;;;9.95;7.65;;;;;;;22.62;57.17;94473.66;5128397;28;20555;-72
2022/09/11 08:54:30;;;;;;;10.60;8.65;;;;;;;22.90;57.05;94458.03;5127105;28;20254;-72
2022/09/11 08:57:10;;;;;;;11.02;7.78;;;;;;;23.15;57.04;94466.06;5127517;28;20192;-72
2022/09/11 09:00:03;;;;;;;9.05;7.80;;;;;;;23.26;55.75;94458.41;5127340;28;20607;-73
2022/09/11 09:03:09;;;;;;;9.32;7.68;;;;;;;23.19;55.56;94453.78;5128613;28;20232;-73
2022/09/11 09:05:45;;;;;;;8.85;7.05;;;;;;;23.18;54.92;94452.19;5128850;27;20204;-76
2022/09/11 09:08:24;;;;;;;9.98;8.13;;;;;;;22.96;56.52;94420.50;5129311;27;20553;-71
2022/09/11 09:10:53;;;;;;;9.07;8.05;;;;;;;23.49;55.78;94433.66;5129193;28;20311;-70
2022/09/11 09:13:36;;;;;;;8.70;7.50;;;;;;;23.77;54.19;94443.59;5130543;27;20251;-70
2022/09/11 09:16:11;;;;;;;8.10;7.30;;;;;;;23.78;53.25;94439.59;5129489;27;20271;-70
2022/09/11 09:18:44;;;;;;;8.80;7.85;;;;;;;23.79;54.09;94434.84;5129417;27;20265;-74
2022/09/11 09:21:15;;;;;;;8.82;7.32;;;;;;;24.23;52.82;94433.81;5130954;27;20185;-70
2022/09/11 09:23:53;;;;;;;9.38;8.10;;;;;;;24.01;53.36;94434.13;5131969;27;20707;-71
2022/09/11 09:26:21;;;;;;;8.30;6.55;;;;;;;23.85;51.02;94431.22;5129840;27;20207;-74
2022/09/11 09:28:52;;;;;;;8.95;8.05;;;;;;;23.80;52.81;94430.88;5130196;27;20201;-72
2022/09/11 09:31:21;;;;;;;8.35;7.55;;;;;;;23.53;52.81;94426.13;5127148;27;20193;-74
2022/09/11 09:33:56;;;;;;;7.75;6.50;;;;;;;23.53;51.40;94436.38;5131734;27;20616;-72
2022/09/11 09:36:30;;;;;;;10.13;7.30;;;;;;;23.41;51.38;94429.41;5124661;27;20651;-71
2022/09/11 09:38:58;;;;;;;7.82;7.03;;;;;;;23.73;51.57;94429.00;5132327;27;20211;-72
2022/09/11 09:42:02;;;;;;;8.82;7.22;;;;;;;23.73;52.23;94420.72;5130970;27;20193;-72
2022/09/11 09:44:43;;;;;;;10.18;8.00;;;;;;;23.36;50.38;94416.84;5111358;27;20776;-73
2022/09/11 09:47:12;;;;;;;7.07;6.38;;;;;;;23.49;50.66;94419.06;5120764;27;20201;-71
2022/09/11 09:49:40;;;;;;;7.63;6.38;;;;;;;23.35;50.72;94414.50;5131342;27;20363;-73
2022/09/11 09:52:17;;;;;;;8.32;7.45;;;;;;;23.46;50.91;94414.34;5131644;27;20212;-73
2022/09/11 09:54:47;;;;;;;9.40;7.30;;;;;;;23.86;50.74;94426.47;5128809;27;20232;-71
2022/09/11 09:57:14;;;;;;;9.07;7.22;;;;;;;24.29;49.01;94421.09;5131014;27;20205;-71
2022/09/11 09:59:43;;;;;;;9.60;7.28;;;;;;;24.19;49.74;94414.47;5130227;27;20282;-73
2022/09/11 10:02:11;;;;;;;9.75;8.75;;;;;;;24.59;49.59;94412.66;5131310;27;20213;-71
2022/09/11 10:04:37;;;;;;;7.38;5.60;;;;;;;23.91;47.96;94412.94;5131529;27;20205;-75
2022/09/11 10:07:12;;;;;;;11.02;7.70;;;;;;;23.92;48.45;94416.47;5131110;27;20553;-74
2022/09/11 10:09:47;;;;;;;4.93;4.43;;;;;;;24.11;47.63;94399.19;5126169;27;20224;-73
2022/09/11 10:12:18;;;;;;;6.40;5.10;;;;;;;24.21;47.64;94403.75;5130683;27;20204;-74
2022/09/11 10:14:51;;;;;;;6.15;5.55;;;;;;;24.66;46.52;94393.13;5131394;27;20284;-73
2022/09/11 10:17:21;;;;;;;6.65;5.38;;;;;;;24.78;46.91;94381.41;5128238;27;20286;-72
2022/09/11 10:19:49;;;;;;;6.60;5.97;;;;;;;24.78;47.37;94403.59;5123441;27;20289;-71
2022/09/11 10:22:31;;;;;;;9.35;6.07;;;;;;;24.61;47.06;94393.59;5129024;27;20212;-73
2022/09/11 10:25:10;;;;;;;6.40;5.80;;;;;;;24.93;46.67;94393.06;5131405;27;20550;-71
2022/09/11 10:27:44;;;;;;;7.78;5.50;;;;;;;25.12;46.10;94389.50;5124599;27;20284;-73
2022/09/11 10:30:33;;;;;;;7.57;5.57;;;;;;;24.63;45.52;94384.88;5130556;27;20287;-72
2022/09/11 10:33:03;;;;;;;6.93;6.10;;;;;;;24.75;46.92;94387.03;5128603;27;20201;-72
2022/09/11 10:35:33;;;;;;;6.63;5.93;;;;;;;24.94;46.92;94382.75;5116886;27;20214;-75
2022/09/11 10:38:16;;;;;;;8.82;5.95;;;;;;;24.43;46.06;94393.16;5129407;27;20201;-71
2022/09/11 10:40:58;;;;;;;6.25;5.55;;;;;;;24.15;47.43;94393.59;5130886;27;20205;-78
2022/09/11 10:43:32;;;;;;;6.20;5.60;;;;;;;24.37;48.53;94392.84;5131449;27;20197;-84
2022/09/11 10:46:05;;;;;;;7.25;6.07;;;;;;;24.56;48.06;94385.03;5130579;27;20272;-73
2022/09/11 10:48:32;;;;;;;6.65;6.05;;;;;;;24.73;48.31;94378.38;5130442;27;20812;-74
2022/09/11 10:51:11;;;;;;;6.07;5.47;;;;;;;24.49;47.93;94388.69;5130471;27;20288;-76
2022/09/11 10:53:50;;;;;;;9.32;5.93;;;;;;;24.67;48.60;94380.06;5130566;27;20236;-74
2022/09/11 10:56:17;;;;;;;8.90;5.72;;;;;;;25.02;47.21;94373.06;5130646;27;20265;-74
2022/09/11 10:58:47;;;;;;;6.38;5.78;;;;;;;25.07;46.79;94364.28;5129392;27;20766;-75
2022/09/11 11:01:14;;;;;;;6.38;5.78;;;;;;;25.23;46.85;94369.09;5129708;27;20228;-74
2022/09/11 11:03:41;;;;;;;6.63;6.00;;;;;;;25.34;46.54;94367.66;5130930;27;20822;-73
2022/09/11 11:06:22;;;;;;;7.25;5.97;;;;;;;24.94;46.99;94371.66;5130537;27;20208;-76
2022/09/11 11:09:24;;;;;;;9.10;5.88;;;;;;;24.66;47.76;94373.75;5130034;27;20679;-72
2022/09/11 11:12:11;;;;;;;6.30;5.70;;;;;;;24.54;48.43;94374.34;5127206;27;20740;-72
2022/09/11 11:15:04;;;;;;;7.55;6.13;;;;;;;24.45;48.34;94368.59;5130627;27;20200;-73
2022/09/11 11:17:39;;;;;;;7.65;6.32;;;;;;;24.51;48.56;94366.88;5116751;27;20205;-73
2022/09/11 11:20:28;;;;;;;7.53;5.93;;;;;;;23.78;50.25;94364.91;5129951;27;20238;-79
2022/09/11 11:23:24;;;;;;;7.43;6.72;;;;;;;23.68;51.07;94360.31;5130223;27;20228;-74
2022/09/11 11:26:03;;;;;;;6.28;5.22;;;;;;;24.20;50.20;94346.03;5120102;27;20205;-75
2022/09/11 11:29:02;;;;;;;6.88;6.00;;;;;;;24.66;49.03;94340.50;5127359;27;20197;-74
2022/09/11 11:31:41;;;;;;;5.85;5.25;;;;;;;24.87;48.34;94338.53;5129708;27;20713;-73
2022/09/11 11:34:32;;;;;;;6.85;6.15;;;;;;;25.18;47.52;94341.88;5130821;27;20273;-73
2022/09/11 11:37:06;;;;;;;5.90;5.30;;;;;;;24.77;47.62;94329.97;5130034;27;20192;-74
2022/09/11 11:39:43;;;;;;;7.05;5.38;;;;;;;24.16;48.71;94339.81;5124678;27;20221;-74
2022/09/11 11:42:21;;;;;;;9.90;7.60;;;;;;;24.31;48.85;94335.63;5118552;27;20196;-74
2022/09/11 11:44:54;;;;;;;6.88;6.18;;;;;;;24.39;47.21;94331.50;5130457;27;20711;-73
2022/09/11 11:47:25;;;;;;;7.47;5.82;;;;;;;24.53;46.23;94328.47;5130673;27;20295;-76
2022/09/11 11:50:01;;;;;;;6.25;5.65;;;;;;;24.57;46.60;94331.97;5129679;27;20928;-74